Time;durP1;ratioP1;P1;durP2;ratioP2;P2;SDS_P1;SDS_P2;PMS_P1;PMS_P2;Temp;Humidity;BMP_temperature;BMP_pressure;BME280_temperature;BME280_humidity;BME280_pressure;Samples;Min_cycle;Max_cycle;Signal;HPM_P1;HPM_P2
2022/11/16 00:00:32;;;;;;;7.90;4.55;;;9.40;99.90;;;;;;5097599;28;20032;-63
2022/11/16 00:03:00;;;;;;;;;;;9.40;99.90;;;;;;5100660;28;20082;-63
2022/11/16 00:05:25;;;;;;;6.07;4.65;;;9.40;99.90;;;;;;5090959;28;19993;-63
2022/11/16 00:07:51;;;;;;;;;;;9.30;99.90;;;;;;5099782;28;20083;-63
2022/11/16 00:10:17;;;;;;;8.45;4.85;;;9.30;99.90;;;;;;5098502;28;19963;-63
2022/11/16 00:12:42;;;;;;;8.10;4.63;;;9.30;99.90;;;;;;5098957;28;20399;-63
2022/11/16 00:15:08;;;;;;;;;;;9.20;99.90;;;;;;5099705;28;20032;-63
2022/11/16 00:17:34;;;;;;;9.05;5.40;;;9.20;99.90;;;;;;5092696;28;19987;-63
2022/11/16 00:19:59;;;;;;;;;;;9.20;99.90;;;;;;5085707;28;20044;-63
2022/11/16 00:22:25;;;;;;;7.28;4.60;;;9.10;99.90;;;;;;5088085;28;19916;-63
2022/11/16 00:24:50;;;;;;;;;;;9.10;99.90;;;;;;5084841;28;20043;-63
2022/11/16 00:27:16;;;;;;;12.40;4.97;;;9.10;99.90;;;;;;5083412;28;19924;-64
2022/11/16 00:29:41;;;;;;;7.70;4.22;;;9.10;99.90;;;;;;5085776;28;20036;-64
2022/11/16 00:32:07;;;;;;;;;;;9.00;99.90;;;;;;5086071;28;20073;-63
2022/11/16 00:34:33;;;;;;;8.65;5.30;;;9.10;99.90;;;;;;5086966;28;19970;-63
2022/11/16 00:36:58;;;;;;;;;;;9.10;99.90;;;;;;5085444;28;20141;-63
2022/11/16 00:39:24;;;;;;;6.00;4.15;;;9.10;99.90;;;;;;5066845;28;19920;-63
2022/11/16 00:41:49;;;;;;;;;;;9.10;99.90;;;;;;5083850;28;20044;-63
2022/11/16 00:44:15;;;;;;;8.40;4.85;;;9.10;99.90;;;;;;5082403;28;19931;-63
2022/11/16 00:46:41;;;;;;;;;;;9.00;99.90;;;;;;5084482;28;20096;-64
2022/11/16 00:49:06;;;;;;;7.25;4.72;;;9.00;99.90;;;;;;5086058;28;19915;-63
2022/11/16 00:51:33;;;;;;;;;;;9.00;99.90;;;;;;5085219;28;20044;-63
2022/11/16 00:53:59;;;;;;;10.27;4.97;;;9.00;99.90;;;;;;5083310;28;19930;-63
2022/11/16 00:56:25;;;;;;;7.55;4.90;;;9.10;99.90;;;;;;5079142;28;20044;-63
2022/11/16 00:58:50;;;;;;;;;;;9.10;99.90;;;;;;5080786;28;20036;-63
2022/11/16 01:01:16;;;;;;;7.53;4.63;;;9.00;99.90;;;;;;5081478;28;20494;-63
2022/11/16 01:03:42;;;;;;;8.80;5.43;;;9.00;99.90;;;;;;5064850;28;20036;-64
2022/11/16 01:06:09;;;;;;;;;;;8.90;99.90;;;;;;5083859;28;20075;-63
2022/11/16 01:08:36;;;;;;;7.65;4.68;;;8.90;99.90;;;;;;5083451;28;19920;-63
2022/11/16 01:13:47;;;;;;;7.65;4.95;;;8.90;99.90;;;;;;5083704;28;20036;-63
2022/11/16 01:16:15;;;;;;;8.15;5.35;;;8.90;99.90;;;;;;5081673;28;20046;-63
2022/11/16 01:18:41;;;;;;;11.27;5.90;;;8.90;99.90;;;;;;5082490;28;20478;-63
2022/11/16 01:21:07;;;;;;;9.10;6.20;;;8.90;99.90;;;;;;5083366;28;20082;-63
2022/11/16 01:23:33;;;;;;;;;;;8.90;99.90;;;;;;5081971;28;20036;-63
2022/11/16 01:26:02;;;;;;;9.77;5.78;;;8.80;99.90;;;;;;5082054;28;20562;-63
2022/11/16 01:28:29;;;;;;;10.43;6.25;;;8.90;99.90;;;;;;5081357;28;20048;-63
2022/11/16 01:30:54;;;;;;;12.25;6.38;;;8.90;99.90;;;;;;5080383;28;20047;-63
2022/11/16 01:33:20;;;;;;;;;;;8.80;99.90;;;;;;5083220;28;20031;-63
2022/11/16 01:35:46;;;;;;;9.25;6.15;;;8.80;99.90;;;;;;5082313;28;19988;-63
2022/11/16 01:38:11;;;;;;;;;;;8.80;99.90;;;;;;5081418;28;20537;-63
2022/11/16 01:40:37;;;;;;;13.43;6.53;;;8.80;99.90;;;;;;5079111;28;20049;-64
2022/11/16 01:43:10;;;;;;;9.93;6.93;;;8.80;99.90;;;;;;5082853;28;20100;-63
2022/11/16 01:45:43;;;;;;;13.82;7.43;;;8.80;99.90;;;;;;5082242;28;20056;-63
2022/11/16 01:48:16;;;;;;;9.55;6.05;;;8.80;99.90;;;;;;5081670;28;20059;-63
2022/11/16 01:50:44;;;;;;;10.98;7.32;;;8.80;99.90;;;;;;5081776;28;20072;-63
2022/11/16 01:53:10;;;;;;;9.77;6.43;;;8.80;99.90;;;;;;5081964;28;20074;-63
2022/11/16 01:55:39;;;;;;;10.32;7.03;;;8.80;99.90;;;;;;5082686;28;20051;-64
2022/11/16 01:58:06;;;;;;;10.05;7.15;;;8.80;99.90;;;;;;5084682;28;20058;-64
2022/11/16 02:00:31;;;;;;;13.57;8.55;;;8.80;99.90;;;;;;5083053;28;20032;-63
2022/11/16 02:02:57;;;;;;;;;;;8.80;99.90;;;;;;5082844;28;20048;-63
2022/11/16 02:05:36;;;;;;;11.35;7.85;;;8.80;99.90;;;;;;5081408;28;19920;-63
2022/11/16 02:11:38;;;;;;;11.52;8.57;;;8.70;99.90;;;;;;5076225;28;20109;-63
2022/11/16 02:14:06;;;;;;;10.02;7.47;;;8.70;99.90;;;;;;5081835;28;20131;-63
2022/11/16 02:16:42;;;;;;;11.63;7.75;;;8.70;99.90;;;;;;5080966;28;20048;-64
2022/11/16 02:19:28;;;;;;;16.08;8.35;;;8.70;99.90;;;;;;5081586;28;20044;-63
2022/11/16 02:22:14;;;;;;;14.65;8.25;;;8.70;99.90;;;;;;5080927;28;20047;-63
2022/11/16 02:25:05;;;;;;;12.88;7.80;;;8.70;99.90;;;;;;5077289;28;20089;-64
2022/11/16 02:27:54;;;;;;;10.45;7.00;;;8.70;99.90;;;;;;5082392;28;20625;-64
2022/11/16 02:30:20;;;;;;;11.07;6.28;;;8.80;99.90;;;;;;5064339;28;20058;-63
2022/11/16 02:32:55;;;;;;;11.88;6.93;;;8.70;99.90;;;;;;5081167;28;20071;-64
2022/11/16 02:35:30;;;;;;;9.13;5.97;;;8.70;99.90;;;;;;5082717;28;20044;-63
2022/11/16 02:38:23;;;;;;;8.60;5.57;;;8.70;99.90;;;;;;5061917;28;20036;-64
2022/11/16 02:40:55;;;;;;;8.65;5.10;;;8.70;99.90;;;;;;5073986;28;20056;-63
2022/11/16 02:43:31;;;;;;;7.25;4.97;;;8.70;99.90;;;;;;5080488;28;20073;-63
2022/11/16 02:46:01;;;;;;;5.93;4.60;;;8.70;99.90;;;;;;5081117;28;20036;-62
2022/11/16 02:48:33;;;;;;;6.78;4.57;;;8.70;99.90;;;;;;5076548;28;20036;-64
2022/11/16 02:50:59;;;;;;;6.35;4.72;;;8.70;99.90;;;;;;5082781;28;20127;-64
2022/11/16 02:53:24;;;;;;;;;;;8.70;99.90;;;;;;5085513;28;20703;-64
2022/11/16 02:55:50;;;;;;;8.15;5.25;;;8.70;99.90;;;;;;5082072;28;19911;-63
2022/11/16 02:58:21;;;;;;;;;;;8.70;99.90;;;;;;5074235;28;20141;-63
2022/11/16 03:01:05;;;;;;;9.85;5.13;;;8.70;99.90;;;;;;5080167;28;20445;-63
2022/11/16 03:03:53;;;;;;;8.95;5.80;;;8.70;99.90;;;;;;5081509;28;20139;-63
2022/11/16 03:06:34;;;;;;;9.18;5.88;;;8.60;99.90;;;;;;5081339;28;20055;-63
2022/11/16 03:09:14;;;;;;;7.25;5.38;;;8.60;99.90;;;;;;5083306;28;20036;-64
2022/11/16 03:14:53;;;;;;;16.33;6.88;;;8.70;99.90;;;;;;5058728;28;20162;-64
2022/11/16 03:17:48;;;;;;;8.02;5.38;;;8.60;99.90;;;;;;5083903;28;20040;-64
2022/11/16 03:20:25;;;;;;;6.28;4.88;;;8.70;99.90;;;;;;5068327;28;20101;-64
2022/11/16 03:22:57;;;;;;;9.27;6.20;;;8.70;99.90;;;;;;5081236;28;20119;-64
2022/11/16 03:25:28;;;;;;;7.85;5.63;;;8.70;99.90;;;;;;5071791;28;20040;-62
2022/11/16 03:27:56;;;;;;;8.52;5.78;;;8.70;99.90;;;;;;5081357;28;20044;-64
2022/11/16 03:30:25;;;;;;;8.43;5.65;;;8.60;99.90;;;;;;5074804;28;20054;-64
2022/11/16 03:32:56;;;;;;;8.13;5.32;;;8.60;99.90;;;;;;5082575;28;20048;-64
2022/11/16 03:35:36;;;;;;;6.95;5.03;;;8.70;99.90;;;;;;5081092;28;20044;-64
2022/11/16 03:38:04;;;;;;;5.85;4.30;;;8.70;99.90;;;;;;5082805;28;20036;-64
2022/11/16 03:40:32;;;;;;;9.70;4.70;;;8.70;99.90;;;;;;5081589;28;20044;-64
2022/11/16 03:43:01;;;;;;;5.97;4.60;;;8.70;99.90;;;;;;5064364;28;20571;-64
2022/11/16 03:45:28;;;;;;;5.50;4.05;;;8.70;99.90;;;;;;5081406;28;20036;-64
2022/11/16 03:47:54;;;;;;;5.15;4.00;;;8.70;99.90;;;;;;5082022;28;20040;-64
2022/11/16 03:50:20;;;;;;;;;;;8.70;99.90;;;;;;5082314;28;20117;-63
2022/11/16 03:52:45;;;;;;;7.75;4.47;;;8.70;99.90;;;;;;5082413;28;19927;-63
2022/11/16 03:55:11;;;;;;;;;;;8.70;99.90;;;;;;5086675;28;20054;-64
2022/11/16 03:57:36;;;;;;;5.60;3.53;;;8.60;99.90;;;;;;5086580;28;20489;-64
2022/11/16 04:00:03;;;;;;;;;;;8.60;99.90;;;;;;5085214;28;20483;-63
2022/11/16 04:02:28;;;;;;;3.58;2.63;;;8.60;99.90;;;;;;5083981;28;19969;-64
2022/11/16 04:24:19;;;;;;;2.85;1.83;;;8.60;99.90;;;;;;5084478;28;20040;-63
2022/11/16 04:29:34;;;;;;;2.70;1.85;;;8.70;99.90;;;;;;5088065;28;20036;-65
2022/11/16 04:37:47;;;;;;;2.13;1.35;;;8.70;99.90;;;;;;5068602;28;20052;-64
2022/11/16 04:40:14;;;;;;;1.80;1.20;;;8.70;99.90;;;;;;5084217;28;20111;-64
2022/11/16 04:42:39;;;;;;;1.38;0.95;;;8.80;99.90;;;;;;5084210;28;20126;-64
2022/11/16 04:47:49;;;;;;;1.10;0.90;;;8.80;99.90;;;;;;5079891;28;19924;-63
2022/11/16 04:50:15;;;;;;;;;;;8.80;99.90;;;;;;5084024;28;20042;-64
2022/11/16 04:52:41;;;;;;;1.73;0.85;;;8.80;99.90;;;;;;5084831;28;19924;-64
2022/11/16 04:55:07;;;;;;;;;;;8.80;99.90;;;;;;5083876;28;20028;-63
2022/11/16 04:57:32;;;;;;;1.67;0.80;;;8.90;99.90;;;;;;5078856;28;19920;-64
2022/11/16 04:59:58;;;;;;;;;;;8.90;99.90;;;;;;5084221;28;20040;-64
2022/11/16 05:02:24;;;;;;;1.10;0.88;;;8.80;99.90;;;;;;5083500;28;19930;-64
2022/11/16 05:04:49;;;;;;;;;;;8.80;99.90;;;;;;5085213;28;20036;-63
2022/11/16 05:07:15;;;;;;;0.95;0.68;;;8.80;99.90;;;;;;5081616;28;19938;-64
2022/11/16 05:09:42;;;;;;;;;;;8.80;99.90;;;;;;5085318;28;20134;-64
2022/11/16 05:12:09;;;;;;;0.45;0.40;;;8.80;99.90;;;;;;5083704;28;19916;-63
2022/11/16 05:14:35;;;;;;;1.27;0.70;;;8.80;99.90;;;;;;5082594;28;20044;-62
2022/11/16 05:17:00;;;;;;;;;;;8.90;99.90;;;;;;5084214;28;20043;-65
2022/11/16 05:22:10;;;;;;;1.30;0.73;;;8.90;99.90;;;;;;5083308;28;20044;-64
2022/11/16 05:24:36;;;;;;;;;;;8.90;99.90;;;;;;5082975;28;20154;-63
2022/11/16 05:27:13;;;;;;;1.00;0.70;;;8.90;99.90;;;;;;5082546;28;19967;-64
2022/11/16 05:29:39;;;;;;;1.13;0.57;;;8.80;99.90;;;;;;5083477;28;20087;-64
2022/11/16 05:32:06;;;;;;;2.50;0.68;;;8.80;99.90;;;;;;5081330;28;20469;-63
2022/11/16 05:34:31;;;;;;;2.35;0.80;;;8.80;99.90;;;;;;5084519;28;20543;-64
2022/11/16 05:36:57;;;;;;;;;;;8.80;99.90;;;;;;5082444;28;20044;-64
2022/11/16 05:39:23;;;;;;;1.20;0.60;;;8.80;99.90;;;;;;5081677;28;19927;-63
2022/11/16 05:41:49;;;;;;;0.88;0.70;;;8.80;99.90;;;;;;5081665;28;20044;-63
2022/11/16 05:44:15;;;;;;;;;;;8.90;99.90;;;;;;5079667;28;20040;-63
2022/11/16 05:46:41;;;;;;;0.70;0.55;;;8.90;99.90;;;;;;5081003;28;19924;-64
2022/11/16 05:49:08;;;;;;;0.82;0.65;;;8.90;99.90;;;;;;5063173;28;20032;-63
2022/11/16 05:51:34;;;;;;;1.83;0.90;;;8.90;99.90;;;;;;5076803;28;20040;-64
2022/11/16 05:54:02;;;;;;;1.05;0.80;;;8.90;99.90;;;;;;5078946;28;20093;-63
2022/11/16 05:56:28;;;;;;;1.10;0.85;;;8.90;99.90;;;;;;5080118;28;20032;-64
2022/11/16 05:58:54;;;;;;;1.00;0.82;;;8.90;99.90;;;;;;5083605;28;20132;-63
2022/11/16 06:01:20;;;;;;;1.00;0.90;;;9.00;99.90;;;;;;5062450;28;20045;-63
2022/11/16 06:03:45;;;;;;;;;;;9.00;99.90;;;;;;5083103;28;20087;-61
2022/11/16 06:06:11;;;;;;;1.65;0.93;;;9.00;99.90;;;;;;5062822;28;19999;-61
2022/11/16 06:08:36;;;;;;;2.63;1.13;;;9.00;99.90;;;;;;5081541;28;20499;-61
2022/11/16 06:11:03;;;;;;;;;;;9.00;99.90;;;;;;5080886;28;20040;-62
2022/11/16 06:13:29;;;;;;;1.38;1.20;;;9.00;99.90;;;;;;5073132;28;19969;-62
2022/11/16 06:15:55;;;;;;;1.40;1.30;;;9.00;99.90;;;;;;5080877;28;20051;-60
2022/11/16 06:18:21;;;;;;;;;;;9.00;99.90;;;;;;5080518;28;20028;-62
2022/11/16 06:20:47;;;;;;;1.88;1.30;;;9.00;99.90;;;;;;5080563;28;19998;-62
2022/11/16 06:23:13;;;;;;;2.45;1.10;;;9.00;99.90;;;;;;5067924;28;20036;-59
2022/11/16 06:25:39;;;;;;;;;;;9.00;99.90;;;;;;5082669;28;20643;-62
2022/11/16 06:28:05;;;;;;;2.65;1.10;;;9.00;99.90;;;;;;5079931;28;19946;-61
2022/11/16 06:30:31;;;;;;;2.08;1.27;;;9.00;99.90;;;;;;5060716;28;20036;-62
2022/11/16 06:32:56;;;;;;;;;;;9.00;99.90;;;;;;5081407;28;20044;-62
2022/11/16 06:35:22;;;;;;;1.30;1.17;;;9.00;99.90;;;;;;5082157;28;19920;-62
2022/11/16 06:37:47;;;;;;;1.90;1.27;;;9.00;99.90;;;;;;5063398;28;20059;-62
2022/11/16 06:40:13;;;;;;;2.10;1.35;;;9.00;99.90;;;;;;5082151;28;20115;-61
2022/11/16 06:42:39;;;;;;;;;;;9.10;99.90;;;;;;5082271;28;20064;-62
2022/11/16 06:45:05;;;;;;;1.48;1.38;;;9.00;99.90;;;;;;5082628;28;20504;-62
2022/11/16 06:47:31;;;;;;;3.45;1.55;;;9.10;99.90;;;;;;5078039;28;20040;-62
2022/11/16 06:49:56;;;;;;;;;;;9.00;99.90;;;;;;5077313;28;20032;-62
2022/11/16 06:52:22;;;;;;;1.92;1.45;;;9.10;99.90;;;;;;5077713;28;19916;-62
2022/11/16 06:54:47;;;;;;;;;;;9.10;99.90;;;;;;5082709;28;20051;-63
2022/11/16 06:57:13;;;;;;;2.22;1.80;;;9.10;99.90;;;;;;5081058;28;19922;-63
2022/11/16 06:59:39;;;;;;;;;;;9.10;99.90;;;;;;5083664;28;20031;-62
2022/11/16 07:02:05;;;;;;;2.95;2.20;;;9.00;99.90;;;;;;5081260;28;19953;-62
2022/11/16 07:04:31;;;;;;;;;;;9.00;99.90;;;;;;5085191;28;20064;-62
2022/11/16 07:06:56;;;;;;;3.00;2.50;;;9.00;99.90;;;;;;5060612;28;20036;-60
2022/11/16 07:09:22;;;;;;;3.70;2.63;;;9.00;99.90;;;;;;5082033;28;20044;-61
2022/11/16 07:11:47;;;;;;;;;;;8.90;99.90;;;;;;5080954;28;20044;-62
2022/11/16 07:14:13;;;;;;;7.40;2.47;;;8.80;99.90;;;;;;5081830;28;19927;-62
2022/11/16 07:16:39;;;;;;;;;;;8.80;99.90;;;;;;5081122;28;20415;-66
2022/11/16 07:19:05;;;;;;;2.95;2.00;;;8.80;99.90;;;;;;5081550;28;19923;-64
2022/11/16 07:21:31;;;;;;;;;;;8.80;99.90;;;;;;5065269;28;20039;-63
2022/11/16 07:23:57;;;;;;;2.50;1.90;;;8.80;99.90;;;;;;5066452;28;19927;-64
2022/11/16 07:26:22;;;;;;;;;;;8.80;99.90;;;;;;5079403;28;20052;-64
2022/11/16 07:28:48;;;;;;;3.35;1.90;;;8.90;99.90;;;;;;5086804;28;20337;-63
2022/11/16 07:31:14;;;;;;;;;;;8.90;99.90;;;;;;5073712;28;20036;-64
2022/11/16 07:33:40;;;;;;;1.92;1.60;;;8.90;99.90;;;;;;5065274;28;19977;-63
2022/11/16 07:36:10;;;;;;;;;;;8.90;99.90;;;;;;5063627;28;20122;-63
2022/11/16 07:38:37;;;;;;;1.92;1.50;;;8.90;99.90;;;;;;5064433;28;19931;-63
2022/11/16 07:41:11;;;;;;;3.08;1.55;;;9.00;99.90;;;;;;5045582;28;20032;-64
2022/11/16 07:43:38;;;;;;;2.20;1.70;;;9.00;99.90;;;;;;5064620;28;20067;-64
2022/11/16 07:46:13;;;;;;;1.90;1.63;;;9.10;99.90;;;;;;5064109;28;20411;-65
2022/11/16 07:48:41;;;;;;;3.13;1.95;;;9.10;99.90;;;;;;5066768;28;20056;-64
2022/11/16 07:51:12;;;;;;;4.50;1.50;;;9.10;99.90;;;;;;5049826;28;20062;-64
2022/11/16 07:53:39;;;;;;;2.75;1.45;;;9.10;99.90;;;;;;5057967;28;20036;-64
2022/11/16 07:56:05;;;;;;;1.95;1.50;;;9.10;99.90;;;;;;5059236;28;20044;-63
2022/11/16 07:58:32;;;;;;;1.67;1.40;;;9.10;99.90;;;;;;5051033;28;20049;-64
2022/11/16 08:01:17;;;;;;;2.38;1.42;;;9.10;99.90;;;;;;5046553;28;20068;-63
2022/11/16 08:03:44;;;;;;;1.98;1.45;;;9.20;99.90;;;;;;5060112;28;20686;-64
2022/11/16 08:06:16;;;;;;;1.30;1.10;;;9.20;99.90;;;;;;5059664;28;20043;-62
2022/11/16 08:08:42;;;;;;;1.00;0.80;;;9.20;99.90;;;;;;5060449;28;20622;-63
2022/11/16 08:11:11;;;;;;;1.02;0.73;;;9.10;99.90;;;;;;5063425;28;20094;-63
2022/11/16 08:13:38;;;;;;;5.88;1.00;;;9.10;99.90;;;;;;5067643;28;20040;-62
2022/11/16 08:16:08;;;;;;;1.10;0.82;;;9.10;99.90;;;;;;5061804;28;20033;-62
2022/11/16 08:18:34;;;;;;;1.60;0.80;;;9.10;99.90;;;;;;5064564;28;20040;-62
2022/11/16 08:21:02;;;;;;;2.00;1.30;;;9.20;99.90;;;;;;5061202;28;20548;-62
2022/11/16 08:23:28;;;;;;;5.13;2.78;;;9.20;99.90;;;;;;5067306;28;20044;-63
2022/11/16 08:26:01;;;;;;;3.63;2.20;;;9.30;99.90;;;;;;5065792;28;20044;-62
2022/11/16 08:28:28;;;;;;;2.22;1.80;;;9.30;99.90;;;;;;5062540;28;20044;-64
2022/11/16 08:30:54;;;;;;;2.25;1.50;;;9.30;99.90;;;;;;5062987;28;20148;-63
2022/11/16 08:33:20;;;;;;;4.95;1.42;;;9.50;99.90;;;;;;5065913;28;20086;-64
2022/11/16 08:35:49;;;;;;;;;;;9.60;99.90;;;;;;5060526;28;20048;-64
2022/11/16 08:38:17;;;;;;;3.03;1.58;;;9.60;99.90;;;;;;5066942;28;19925;-64
2022/11/16 08:40:44;;;;;;;2.20;1.10;;;9.70;99.90;;;;;;5061375;28;20044;-64
2022/11/16 08:43:10;;;;;;;2.70;1.10;;;9.80;99.90;;;;;;5068199;28;20111;-64
2022/11/16 08:45:36;;;;;;;;;;;9.80;99.90;;;;;;5068684;28;20671;-64
2022/11/16 08:48:02;;;;;;;3.58;2.25;;;9.80;99.90;;;;;;5057061;28;19921;-64
2022/11/16 08:50:28;;;;;;;2.78;1.80;;;9.80;99.90;;;;;;5066147;28;20641;-63
2022/11/16 08:52:55;;;;;;;;;;;9.80;99.90;;;;;;5060007;28;20032;-64
2022/11/16 08:55:21;;;;;;;2.85;1.88;;;9.80;99.90;;;;;;5063748;28;19923;-63
2022/11/16 08:57:46;;;;;;;;;;;9.80;99.90;;;;;;5066540;28;20048;-64
2022/11/16 09:00:12;;;;;;;4.93;2.55;;;9.80;99.90;;;;;;5064544;28;19916;-64
2022/11/16 09:02:38;;;;;;;5.90;2.10;;;9.80;99.90;;;;;;5062284;28;20068;-64
2022/11/16 09:05:04;;;;;;;;;;;9.80;99.90;;;;;;5065287;28;20079;-64
2022/11/16 09:07:29;;;;;;;3.72;1.13;;;9.80;99.90;;;;;;5066680;28;20375;-64
2022/11/16 09:09:55;;;;;;;;;;;9.80;99.90;;;;;;5071155;28;20037;-64
2022/11/16 09:12:20;;;;;;;1.85;1.08;;;9.90;99.90;;;;;;5067624;28;19920;-65
2022/11/16 09:14:46;;;;;;;;;;;10.00;99.90;;;;;;5070299;28;20033;-64
2022/11/16 09:17:11;;;;;;;1.52;0.63;;;10.00;99.90;;;;;;5068476;28;19916;-64
2022/11/16 09:19:37;;;;;;;3.00;1.10;;;10.10;99.90;;;;;;5063766;28;20157;-63
2022/11/16 09:22:03;;;;;;;3.20;1.10;;;10.10;99.90;;;;;;5064177;28;20032;-64
2022/11/16 09:24:30;;;;;;;2.08;1.00;;;10.20;99.90;;;;;;5064791;28;20041;-65
2022/11/16 09:26:59;;;;;;;4.35;1.20;;;10.20;99.90;;;;;;5062869;28;20536;-62
2022/11/16 09:29:26;;;;;;;4.50;0.95;;;10.30;99.90;;;;;;5068141;28;20511;-63
2022/11/16 09:31:52;;;;;;;4.50;1.35;;;10.30;99.90;;;;;;5058485;28;20041;-64
2022/11/16 09:34:18;;;;;;;4.05;0.93;;;10.40;99.90;;;;;;5044874;28;20551;-64
2022/11/16 09:36:43;;;;;;;;;;;10.40;99.90;;;;;;5066113;28;20071;-62
2022/11/16 09:39:11;;;;;;;1.90;0.85;;;10.40;99.90;;;;;;5063669;28;19925;-63
2022/11/16 09:41:59;;;;;;;3.38;0.93;;;10.40;99.90;;;;;;5060024;28;20045;-63
2022/11/16 09:44:52;;;;;;;2.67;1.10;;;10.40;99.90;;;;;;5058697;28;20074;-62
2022/11/16 09:47:21;;;;;;;2.45;0.80;;;10.40;99.90;;;;;;5062623;28;20044;-63
2022/11/16 09:49:51;;;;;;;2.80;0.98;;;10.50;99.90;;;;;;5061717;28;20803;-63
2022/11/16 09:52:41;;;;;;;3.83;0.85;;;10.40;99.90;;;;;;5062696;28;20048;-61
2022/11/16 09:55:16;;;;;;;1.58;0.80;;;10.40;99.90;;;;;;5045320;28;20043;-64
2022/11/16 09:57:43;;;;;;;2.80;0.85;;;10.40;99.90;;;;;;5059958;28;20044;-63
2022/11/16 10:00:16;;;;;;;1.73;0.98;;;10.40;99.90;;;;;;5061163;28;20040;-63
2022/11/16 10:02:47;;;;;;;2.33;0.70;;;10.30;99.90;;;;;;5060934;28;20072;-63
2022/11/16 10:05:28;;;;;;;3.42;1.00;;;10.40;99.90;;;;;;5068737;28;20040;-64
2022/11/16 10:08:03;;;;;;;2.05;0.85;;;10.50;99.90;;;;;;5061137;28;20033;-64
2022/11/16 10:10:44;;;;;;;4.53;0.80;;;10.50;99.90;;;;;;5056077;28;20049;-63
2022/11/16 10:13:30;;;;;;;3.17;0.90;;;10.60;99.90;;;;;;5064229;28;20044;-63
2022/11/16 10:16:06;;;;;;;3.75;0.95;;;10.60;99.90;;;;;;5062768;28;20041;-64
2022/11/16 10:19:03;;;;;;;4.10;1.88;;;10.70;99.90;;;;;;5057707;28;20052;-65
2022/11/16 10:21:38;;;;;;;3.17;0.98;;;10.60;99.90;;;;;;5067034;28;20336;-63
2022/11/16 10:24:22;;;;;;;8.82;1.00;;;10.60;99.90;;;;;;5076243;28;20037;-63
2022/11/16 10:27:07;;;;;;;2.70;0.80;;;10.50;99.90;;;;;;5064621;28;20248;-63
2022/11/16 10:30:01;;;;;;;5.20;1.10;;;10.40;99.90;;;;;;5065438;28;20123;-62
2022/11/16 10:32:47;;;;;;;8.07;1.00;;;10.40;99.90;;;;;;5075282;28;20040;-64
2022/11/16 10:35:23;;;;;;;5.28;1.27;;;10.50;99.90;;;;;;5065059;28;20032;-63
2022/11/16 10:37:50;;;;;;;6.28;1.20;;;10.50;99.90;;;;;;5067661;28;20059;-63
2022/11/16 10:40:18;;;;;;;4.53;0.80;;;10.50;99.90;;;;;;5062289;28;20044;-63
2022/11/16 10:43:03;;;;;;;2.05;0.90;;;10.60;99.90;;;;;;5060049;28;20085;-63
2022/11/16 10:45:42;;;;;;;5.00;1.27;;;10.60;99.90;;;;;;5055459;28;20067;-62
2022/11/16 10:48:19;;;;;;;4.15;0.90;;;10.60;99.90;;;;;;5071660;28;20051;-61
2022/11/16 10:50:47;;;;;;;7.38;1.10;;;10.70;99.90;;;;;;5062296;28;20079;-62
2022/11/16 10:53:24;;;;;;;4.65;0.90;;;10.80;99.90;;;;;;5061494;28;20032;-63
2022/11/16 10:56:12;;;;;;;;;;;10.80;99.90;;;;;;5063314;28;20543;-62
2022/11/16 10:58:58;;;;;;;4.30;0.85;;;10.80;99.90;;;;;;5054913;28;20009;-64
2022/11/16 11:01:40;;;;;;;4.82;1.20;;;10.70;99.90;;;;;;5061281;28;20494;-64
2022/11/16 11:04:28;;;;;;;5.03;1.17;;;10.60;99.90;;;;;;5074576;28;20048;-63
2022/11/16 11:07:01;;;;;;;4.50;1.70;;;10.50;99.90;;;;;;5064038;28;20036;-64
2022/11/16 11:09:34;;;;;;;4.13;1.52;;;10.40;99.90;;;;;;5067566;28;20040;-63
2022/11/16 11:15:00;;;;;;;6.40;1.10;;;10.30;99.90;;;;;;5075625;28;20123;-63
2022/11/16 11:17:27;;;;;;;6.85;1.63;;;10.30;99.90;;;;;;5060559;28;20049;-63
2022/11/16 11:20:05;;;;;;;4.47;0.90;;;10.40;99.90;;;;;;5065893;28;20039;-62
2022/11/16 11:22:33;;;;;;;8.05;1.00;;;10.30;99.90;;;;;;5075478;28;20496;-63
2022/11/16 11:25:02;;;;;;;4.30;0.85;;;10.30;99.90;;;;;;5071875;28;20037;-62
2022/11/16 11:27:32;;;;;;;6.72;1.00;;;10.30;99.90;;;;;;5074740;28;20040;-63
2022/11/16 11:29:59;;;;;;;8.52;1.20;;;10.30;99.90;;;;;;5068310;28;20059;-62
2022/11/16 11:32:38;;;;;;;3.50;1.17;;;10.30;99.90;;;;;;5069683;28;20039;-62
2022/11/16 11:35:05;;;;;;;7.70;1.38;;;10.30;99.90;;;;;;5063887;28;20043;-64
2022/11/16 11:37:37;;;;;;;8.55;1.30;;;10.30;99.90;;;;;;5065980;28;20071;-63
2022/11/16 11:40:18;;;;;;;7.25;1.33;;;10.20;99.90;;;;;;5075026;28;20104;-62
2022/11/16 11:42:53;;;;;;;3.45;0.90;;;10.10;99.90;;;;;;5060769;28;20109;-62
2022/11/16 11:45:23;;;;;;;6.93;1.25;;;10.10;99.90;;;;;;5063692;28;20044;-60
2022/11/16 11:47:59;;;;;;;4.50;0.85;;;10.10;99.90;;;;;;5064765;28;20560;-62
2022/11/16 11:50:42;;;;;;;4.20;1.13;;;10.10;99.90;;;;;;5052423;28;20036;-64
2022/11/16 11:53:20;;;;;;;4.32;0.80;;;10.10;99.90;;;;;;5049602;28;20044;-63
2022/11/16 11:55:46;;;;;;;5.22;1.25;;;10.20;99.90;;;;;;5061293;28;20040;-62
2022/11/16 11:58:14;;;;;;;;;;;10.20;99.90;;;;;;5077942;28;20047;-62
2022/11/16 12:00:54;;;;;;;8.00;1.05;;;10.20;99.90;;;;;;5073077;28;19923;-64
2022/11/16 12:03:44;;;;;;;7.57;1.08;;;10.20;99.90;;;;;;5063652;28;20102;-63
2022/11/16 12:06:35;;;;;;;6.35;1.15;;;10.30;99.90;;;;;;5063347;28;20072;-64
2022/11/16 12:09:30;;;;;;;7.78;1.02;;;10.30;99.90;;;;;;5062735;28;20032;-63
2022/11/16 12:12:21;;;;;;;8.15;1.15;;;10.30;99.90;;;;;;5054532;28;20566;-64
2022/11/16 12:14:56;;;;;;;3.42;0.80;;;10.30;99.90;;;;;;5065253;28;20078;-61
2022/11/16 12:17:31;;;;;;;8.82;1.83;;;10.20;99.90;;;;;;5064467;28;20040;-63
2022/11/16 12:20:24;;;;;;;8.20;1.42;;;10.30;99.90;;;;;;5062264;28;20055;-63
2022/11/16 12:23:06;;;;;;;4.50;1.17;;;10.30;99.90;;;;;;5069010;28;20040;-64
2022/11/16 12:25:44;;;;;;;6.40;0.77;;;10.30;99.90;;;;;;5064994;28;20039;-64
2022/11/16 12:28:19;;;;;;;10.50;1.20;;;10.30;99.90;;;;;;5077929;28;20113;-63
2022/11/16 12:31:23;;;;;;;4.77;0.77;;;10.30;99.90;;;;;;5064449;28;20059;-63
2022/11/16 12:34:19;;;;;;;5.50;0.90;;;10.30;99.90;;;;;;5076030;28;20036;-63
2022/11/16 12:37:07;;;;;;;9.45;1.85;;;10.30;99.90;;;;;;5071964;28;20056;-63
2022/11/16 12:39:59;;;;;;;7.40;1.08;;;10.30;99.90;;;;;;5065671;28;20072;-61
2022/11/16 12:42:31;;;;;;;4.72;0.90;;;10.30;99.90;;;;;;5064846;28;20111;-64
2022/11/16 12:45:24;;;;;;;5.28;0.93;;;10.30;99.90;;;;;;5066367;28;20045;-62
2022/11/16 12:48:13;;;;;;;5.18;1.08;;;10.20;99.90;;;;;;5068075;28;20049;-62
2022/11/16 12:50:49;;;;;;;7.07;0.90;;;10.20;99.90;;;;;;5064940;28;20045;-63
2022/11/16 12:53:50;;;;;;;10.65;0.93;;;10.20;99.90;;;;;;5061124;28;20255;-63
2022/11/16 12:56:30;;;;;;;12.63;1.10;;;10.20;99.90;;;;;;5062083;28;20239;-63
2022/11/16 12:59:01;;;;;;;6.78;0.75;;;10.20;99.90;;;;;;5062893;28;20052;-63
2022/11/16 13:01:39;;;;;;;4.22;1.02;;;10.20;99.90;;;;;;5063072;28;20052;-64
2022/11/16 13:04:11;;;;;;;2.72;0.70;;;10.30;99.90;;;;;;5065439;28;20040;-63
2022/11/16 13:06:48;;;;;;;3.97;1.00;;;10.30;99.90;;;;;;5064721;28;20041;-64
2022/11/16 13:09:31;;;;;;;3.90;1.20;;;10.30;99.90;;;;;;5065110;28;20048;-64
2022/11/16 13:12:01;;;;;;;3.95;0.63;;;10.30;99.90;;;;;;5065090;28;20075;-64
2022/11/16 13:14:36;;;;;;;9.88;1.85;;;10.30;99.90;;;;;;5056078;28;20064;-64
2022/11/16 13:17:04;;;;;;;5.80;0.80;;;10.40;99.90;;;;;;5062794;28;20044;-64
2022/11/16 13:19:31;;;;;;;5.18;1.00;;;10.40;99.90;;;;;;5067519;28;20063;-64
2022/11/16 13:22:12;;;;;;;5.40;0.90;;;10.40;99.90;;;;;;5065289;28;20038;-63
2022/11/16 13:24:48;;;;;;;4.85;1.00;;;10.40;99.90;;;;;;5064631;28;20575;-62
2022/11/16 13:27:35;;;;;;;7.40;1.08;;;10.40;99.90;;;;;;5067047;28;20044;-64
2022/11/16 13:30:29;;;;;;;10.77;2.15;;;10.30;99.90;;;;;;5067970;28;20054;-64
2022/11/16 13:33:31;;;;;;;5.43;0.90;;;10.30;99.90;;;;;;5083898;28;20044;-64
2022/11/16 13:35:57;;;;;;;6.22;1.05;;;10.30;99.90;;;;;;5080918;28;20085;-63
2022/11/16 13:38:41;;;;;;;;;;;10.30;99.90;;;;;;5083945;28;20052;-64
2022/11/16 13:41:27;;;;;;;7.45;0.98;;;10.30;99.90;;;;;;5081873;28;19970;-65
2022/11/16 13:43:53;;;;;;;3.50;0.70;;;10.30;99.90;;;;;;5085847;28;20127;-64
2022/11/16 13:46:19;;;;;;;;;;;10.30;99.90;;;;;;5083565;28;20076;-64
2022/11/16 13:48:45;;;;;;;7.50;0.93;;;10.20;99.90;;;;;;5086594;28;19958;-63
2022/11/16 13:51:21;;;;;;;5.80;1.25;;;10.30;99.90;;;;;;5087282;28;20040;-64
2022/11/16 13:53:49;;;;;;;;;;;10.20;99.90;;;;;;5088659;28;20654;-63
2022/11/16 13:56:15;;;;;;;;;;;10.20;99.90;;;;;;5085476;28;19916;-64
2022/11/16 13:58:50;;;;;;;5.18;0.90;;;10.20;99.90;;;;;;5086818;28;20011;-63
2022/11/16 14:01:17;;;;;;;4.75;0.60;;;10.20;99.90;;;;;;5083425;28;20040;-64
2022/11/16 14:03:50;;;;;;;4.45;0.85;;;10.30;99.90;;;;;;5085436;28;20103;-63
2022/11/16 14:06:18;;;;;;;7.28;1.25;;;10.30;99.90;;;;;;5082764;28;20094;-63
2022/11/16 14:08:47;;;;;;;5.65;1.40;;;10.30;99.90;;;;;;5085004;28;20742;-63
2022/11/16 14:11:42;;;;;;;4.70;1.15;;;10.20;99.90;;;;;;5084997;28;20052;-63
2022/11/16 14:14:32;;;;;;;5.50;1.80;;;10.20;99.90;;;;;;5085146;28;20724;-64